sensor_id;sensor_type;location;lat;lon;timestamp;P1;durP1;ratioP1;P2;durP2;ratioP2
35540;SDS011;21650;48.840;9.162;2022-11-23T00:03:40;6.83;;;1.70;;
35540;SDS011;21650;48.840;9.162;2022-11-23T00:06:06;4.87;;;1.50;;
35540;SDS011;21650;48.840;9.162;2022-11-23T00:08:32;7.80;;;2.10;;
35540;SDS011;21650;48.840;9.162;2022-11-23T00:10:58;3.90;;;1.60;;
35540;SDS011;21650;48.840;9.162;2022-11-23T00:13:24;3.40;;;1.40;;
35540;SDS011;21650;48.840;9.162;2022-11-23T00:15:50;5.60;;;1.70;;
35540;SDS011;21650;48.840;9.162;2022-11-23T00:18:17;3.70;;;1.33;;
35540;SDS011;21650;48.840;9.162;2022-11-23T00:20:43;5.77;;;1.40;;
35540;SDS011;21650;48.840;9.162;2022-11-23T00:23:09;3.70;;;1.67;;
35540;SDS011;21650;48.840;9.162;2022-11-23T00:25:35;8.33;;;1.53;;
35540;SDS011;21650;48.840;9.162;2022-11-23T00:28:00;3.57;;;1.77;;
35540;SDS011;21650;48.840;9.162;2022-11-23T00:30:26;6.47;;;2.10;;
35540;SDS011;21650;48.840;9.162;2022-11-23T00:32:53;5.10;;;1.50;;
35540;SDS011;21650;48.840;9.162;2022-11-23T00:35:19;7.83;;;2.00;;
35540;SDS011;21650;48.840;9.162;2022-11-23T00:37:46;5.00;;;1.60;;
35540;SDS011;21650;48.840;9.162;2022-11-23T00:40:11;2.73;;;1.80;;
35540;SDS011;21650;48.840;9.162;2022-11-23T00:42:37;3.30;;;1.50;;
35540;SDS011;21650;48.840;9.162;2022-11-23T00:45:02;4.83;;;2.13;;
35540;SDS011;21650;48.840;9.162;2022-11-23T00:47:28;8.97;;;2.00;;
35540;SDS011;21650;48.840;9.162;2022-11-23T00:49:54;4.00;;;1.77;;
35540;SDS011;21650;48.840;9.162;2022-11-23T00:52:19;5.37;;;2.13;;
35540;SDS011;21650;48.840;9.162;2022-11-23T00:54:45;7.90;;;2.00;;
35540;SDS011;21650;48.840;9.162;2022-11-23T00:57:10;4.77;;;1.80;;
35540;SDS011;21650;48.840;9.162;2022-11-23T00:59:36;6.30;;;2.13;;
35540;SDS011;21650;48.840;9.162;2022-11-23T01:02:02;6.83;;;2.07;;
35540;SDS011;21650;48.840;9.162;2022-11-23T01:04:27;4.47;;;1.70;;
35540;SDS011;21650;48.840;9.162;2022-11-23T01:06:56;2.80;;;1.50;;
35540;SDS011;21650;48.840;9.162;2022-11-23T01:09:22;11.90;;;1.97;;
35540;SDS011;21650;48.840;9.162;2022-11-23T01:11:50;6.10;;;2.17;;
35540;SDS011;21650;48.840;9.162;2022-11-23T01:14:17;7.10;;;1.63;;
35540;SDS011;21650;48.840;9.162;2022-11-23T01:16:43;8.87;;;1.70;;
35540;SDS011;21650;48.840;9.162;2022-11-23T01:19:10;3.93;;;1.67;;
35540;SDS011;21650;48.840;9.162;2022-11-23T01:21:37;3.83;;;1.60;;
35540;SDS011;21650;48.840;9.162;2022-11-23T01:24:04;4.23;;;1.80;;
35540;SDS011;21650;48.840;9.162;2022-11-23T01:26:31;4.10;;;2.07;;
35540;SDS011;21650;48.840;9.162;2022-11-23T01:28:56;7.70;;;1.77;;
35540;SDS011;21650;48.840;9.162;2022-11-23T01:31:23;7.13;;;1.77;;
35540;SDS011;21650;48.840;9.162;2022-11-23T01:33:56;6.40;;;1.50;;
35540;SDS011;21650;48.840;9.162;2022-11-23T01:36:24;8.10;;;2.17;;
35540;SDS011;21650;48.840;9.162;2022-11-23T01:38:51;3.73;;;1.67;;
35540;SDS011;21650;48.840;9.162;2022-11-23T01:41:18;4.70;;;1.60;;
35540;SDS011;21650;48.840;9.162;2022-11-23T01:43:46;4.70;;;1.53;;
35540;SDS011;21650;48.840;9.162;2022-11-23T01:46:13;8.27;;;2.30;;
35540;SDS011;21650;48.840;9.162;2022-11-23T01:51:25;4.00;;;1.97;;
35540;SDS011;21650;48.840;9.162;2022-11-23T01:53:59;4.40;;;1.60;;
35540;SDS011;21650;48.840;9.162;2022-11-23T01:56:31;3.53;;;1.30;;
35540;SDS011;21650;48.840;9.162;2022-11-23T01:59:01;3.47;;;1.80;;
35540;SDS011;21650;48.840;9.162;2022-11-23T02:01:30;4.40;;;1.57;;
35540;SDS011;21650;48.840;9.162;2022-11-23T02:03:55;5.33;;;1.80;;
35540;SDS011;21650;48.840;9.162;2022-11-23T02:06:24;3.10;;;1.43;;
35540;SDS011;21650;48.840;9.162;2022-11-23T02:08:50;6.30;;;1.40;;
35540;SDS011;21650;48.840;9.162;2022-11-23T02:11:16;3.50;;;1.77;;
35540;SDS011;21650;48.840;9.162;2022-11-23T02:13:42;6.93;;;1.90;;
35540;SDS011;21650;48.840;9.162;2022-11-23T02:16:11;6.77;;;1.67;;
35540;SDS011;21650;48.840;9.162;2022-11-23T02:18:38;3.57;;;1.30;;
35540;SDS011;21650;48.840;9.162;2022-11-23T02:21:06;5.23;;;1.30;;
35540;SDS011;21650;48.840;9.162;2022-11-23T02:29:14;3.03;;;1.67;;
35540;SDS011;21650;48.840;9.162;2022-11-23T02:31:37;8.03;;;1.30;;
35540;SDS011;21650;48.840;9.162;2022-11-23T02:34:03;4.53;;;1.57;;
35540;SDS011;21650;48.840;9.162;2022-11-23T02:36:42;6.33;;;1.87;;
35540;SDS011;21650;48.840;9.162;2022-11-23T02:39:13;3.47;;;1.63;;
35540;SDS011;21650;48.840;9.162;2022-11-23T02:41:58;4.43;;;1.67;;
35540;SDS011;21650;48.840;9.162;2022-11-23T02:47:01;7.47;;;2.30;;
35540;SDS011;21650;48.840;9.162;2022-11-23T02:49:27;3.00;;;1.17;;
35540;SDS011;21650;48.840;9.162;2022-11-23T02:51:52;3.90;;;1.67;;
35540;SDS011;21650;48.840;9.162;2022-11-23T02:54:18;5.00;;;1.73;;
35540;SDS011;21650;48.840;9.162;2022-11-23T02:56:44;6.40;;;1.80;;
35540;SDS011;21650;48.840;9.162;2022-11-23T02:59:09;4.67;;;1.50;;
35540;SDS011;21650;48.840;9.162;2022-11-23T03:01:35;2.60;;;1.20;;
35540;SDS011;21650;48.840;9.162;2022-11-23T03:04:01;2.93;;;1.30;;
35540;SDS011;21650;48.840;9.162;2022-11-23T03:06:27;4.73;;;1.70;;
35540;SDS011;21650;48.840;9.162;2022-11-23T03:08:52;8.00;;;1.80;;
35540;SDS011;21650;48.840;9.162;2022-11-23T03:11:18;4.83;;;1.90;;
35540;SDS011;21650;48.840;9.162;2022-11-23T03:13:43;6.20;;;1.83;;
35540;SDS011;21650;48.840;9.162;2022-11-23T03:16:09;10.03;;;2.33;;
35540;SDS011;21650;48.840;9.162;2022-11-23T03:18:35;5.83;;;2.13;;
35540;SDS011;21650;48.840;9.162;2022-11-23T03:21:04;2.63;;;1.80;;
35540;SDS011;21650;48.840;9.162;2022-11-23T03:23:32;6.40;;;2.10;;
35540;SDS011;21650;48.840;9.162;2022-11-23T03:25:58;5.43;;;1.50;;
35540;SDS011;21650;48.840;9.162;2022-11-23T03:28:24;3.37;;;1.73;;
35540;SDS011;21650;48.840;9.162;2022-11-23T03:30:50;2.63;;;1.40;;
35540;SDS011;21650;48.840;9.162;2022-11-23T03:33:16;4.03;;;1.93;;
35540;SDS011;21650;48.840;9.162;2022-11-23T03:35:42;7.33;;;2.23;;
35540;SDS011;21650;48.840;9.162;2022-11-23T03:38:08;3.70;;;1.73;;
35540;SDS011;21650;48.840;9.162;2022-11-23T03:40:33;7.27;;;2.23;;
35540;SDS011;21650;48.840;9.162;2022-11-23T03:42:59;2.53;;;2.00;;
35540;SDS011;21650;48.840;9.162;2022-11-23T03:45:25;4.63;;;1.60;;
35540;SDS011;21650;48.840;9.162;2022-11-23T03:47:50;3.43;;;2.43;;
35540;SDS011;21650;48.840;9.162;2022-11-23T03:50:16;5.60;;;2.63;;
35540;SDS011;21650;48.840;9.162;2022-11-23T03:52:42;8.27;;;2.20;;
35540;SDS011;21650;48.840;9.162;2022-11-23T03:55:08;4.77;;;1.93;;
35540;SDS011;21650;48.840;9.162;2022-11-23T03:57:34;6.20;;;2.43;;
35540;SDS011;21650;48.840;9.162;2022-11-23T03:59:59;8.13;;;2.00;;
35540;SDS011;21650;48.840;9.162;2022-11-23T04:02:25;7.17;;;2.27;;
35540;SDS011;21650;48.840;9.162;2022-11-23T04:04:51;4.80;;;2.03;;
35540;SDS011;21650;48.840;9.162;2022-11-23T04:07:16;5.10;;;1.63;;
35540;SDS011;21650;48.840;9.162;2022-11-23T04:09:42;7.37;;;2.33;;
35540;SDS011;21650;48.840;9.162;2022-11-23T04:12:08;9.03;;;2.87;;
35540;SDS011;21650;48.840;9.162;2022-11-23T04:14:34;7.83;;;3.00;;
35540;SDS011;21650;48.840;9.162;2022-11-23T04:17:00;5.73;;;3.13;;
35540;SDS011;21650;48.840;9.162;2022-11-23T04:19:29;5.07;;;2.60;;
35540;SDS011;21650;48.840;9.162;2022-11-23T04:21:55;12.43;;;2.93;;
35540;SDS011;21650;48.840;9.162;2022-11-23T04:24:20;12.27;;;3.50;;
35540;SDS011;21650;48.840;9.162;2022-11-23T04:26:46;9.67;;;3.23;;
35540;SDS011;21650;48.840;9.162;2022-11-23T04:29:11;6.87;;;3.40;;
35540;SDS011;21650;48.840;9.162;2022-11-23T04:31:37;6.00;;;2.40;;
35540;SDS011;21650;48.840;9.162;2022-11-23T04:34:03;7.10;;;2.57;;
35540;SDS011;21650;48.840;9.162;2022-11-23T04:36:28;7.07;;;3.27;;
35540;SDS011;21650;48.840;9.162;2022-11-23T04:38:54;5.23;;;3.07;;
35540;SDS011;21650;48.840;9.162;2022-11-23T04:41:20;6.63;;;2.77;;
35540;SDS011;21650;48.840;9.162;2022-11-23T04:43:47;6.93;;;2.87;;
35540;SDS011;21650;48.840;9.162;2022-11-23T04:46:13;10.50;;;3.03;;
35540;SDS011;21650;48.840;9.162;2022-11-23T04:48:39;9.03;;;2.80;;
35540;SDS011;21650;48.840;9.162;2022-11-23T04:51:04;5.13;;;2.67;;
35540;SDS011;21650;48.840;9.162;2022-11-23T04:53:30;4.57;;;2.73;;
35540;SDS011;21650;48.840;9.162;2022-11-23T04:55:56;5.57;;;2.80;;
35540;SDS011;21650;48.840;9.162;2022-11-23T04:58:22;9.07;;;3.20;;
35540;SDS011;21650;48.840;9.162;2022-11-23T05:00:47;7.77;;;2.37;;
35540;SDS011;21650;48.840;9.162;2022-11-23T05:03:13;7.93;;;2.90;;
35540;SDS011;21650;48.840;9.162;2022-11-23T05:05:39;6.10;;;3.13;;
35540;SDS011;21650;48.840;9.162;2022-11-23T05:08:06;8.97;;;3.03;;
35540;SDS011;21650;48.840;9.162;2022-11-23T05:10:31;8.93;;;3.83;;
35540;SDS011;21650;48.840;9.162;2022-11-23T05:12:57;6.93;;;3.07;;
35540;SDS011;21650;48.840;9.162;2022-11-23T05:15:23;5.80;;;3.57;;
35540;SDS011;21650;48.840;9.162;2022-11-23T05:17:48;6.30;;;3.17;;
35540;SDS011;21650;48.840;9.162;2022-11-23T05:20:14;5.60;;;2.53;;
35540;SDS011;21650;48.840;9.162;2022-11-23T05:22:40;7.73;;;2.50;;
35540;SDS011;21650;48.840;9.162;2022-11-23T05:25:05;6.60;;;2.77;;
35540;SDS011;21650;48.840;9.162;2022-11-23T05:27:31;5.83;;;2.70;;
35540;SDS011;21650;48.840;9.162;2022-11-23T05:29:57;6.80;;;2.10;;
35540;SDS011;21650;48.840;9.162;2022-11-23T05:32:23;5.33;;;2.17;;
35540;SDS011;21650;48.840;9.162;2022-11-23T05:34:48;6.37;;;2.10;;
35540;SDS011;21650;48.840;9.162;2022-11-23T05:37:14;7.87;;;2.10;;
35540;SDS011;21650;48.840;9.162;2022-11-23T05:39:39;4.50;;;1.87;;
35540;SDS011;21650;48.840;9.162;2022-11-23T05:42:05;8.43;;;2.47;;
35540;SDS011;21650;48.840;9.162;2022-11-23T05:44:31;6.00;;;2.50;;
35540;SDS011;21650;48.840;9.162;2022-11-23T05:46:56;5.03;;;2.30;;
35540;SDS011;21650;48.840;9.162;2022-11-23T05:49:22;8.33;;;2.37;;
35540;SDS011;21650;48.840;9.162;2022-11-23T05:51:47;8.30;;;2.67;;
35540;SDS011;21650;48.840;9.162;2022-11-23T05:54:13;6.30;;;2.70;;
35540;SDS011;21650;48.840;9.162;2022-11-23T05:56:38;7.20;;;2.60;;
35540;SDS011;21650;48.840;9.162;2022-11-23T05:59:04;8.13;;;2.73;;
35540;SDS011;21650;48.840;9.162;2022-11-23T06:01:30;6.30;;;2.90;;
35540;SDS011;21650;48.840;9.162;2022-11-23T06:03:56;7.90;;;2.50;;
35540;SDS011;21650;48.840;9.162;2022-11-23T06:06:22;7.07;;;2.10;;
35540;SDS011;21650;48.840;9.162;2022-11-23T06:08:47;7.27;;;2.60;;
35540;SDS011;21650;48.840;9.162;2022-11-23T06:11:13;6.60;;;2.17;;
35540;SDS011;21650;48.840;9.162;2022-11-23T06:13:38;4.97;;;1.80;;
35540;SDS011;21650;48.840;9.162;2022-11-23T06:16:04;8.70;;;2.00;;
35540;SDS011;21650;48.840;9.162;2022-11-23T06:18:30;4.97;;;1.87;;
35540;SDS011;21650;48.840;9.162;2022-11-23T06:20:59;5.40;;;2.20;;
35540;SDS011;21650;48.840;9.162;2022-11-23T06:23:25;4.47;;;1.53;;
35540;SDS011;21650;48.840;9.162;2022-11-23T06:25:51;5.30;;;2.07;;
35540;SDS011;21650;48.840;9.162;2022-11-23T06:28:16;3.33;;;1.37;;
35540;SDS011;21650;48.840;9.162;2022-11-23T06:30:42;6.00;;;1.83;;
35540;SDS011;21650;48.840;9.162;2022-11-23T06:33:07;4.30;;;2.27;;
35540;SDS011;21650;48.840;9.162;2022-11-23T06:35:33;4.63;;;1.43;;
35540;SDS011;21650;48.840;9.162;2022-11-23T06:37:59;4.83;;;1.80;;
35540;SDS011;21650;48.840;9.162;2022-11-23T06:40:24;6.60;;;2.33;;
35540;SDS011;21650;48.840;9.162;2022-11-23T06:42:50;10.80;;;3.10;;
35540;SDS011;21650;48.840;9.162;2022-11-23T06:45:17;6.87;;;2.43;;
35540;SDS011;21650;48.840;9.162;2022-11-23T06:47:43;6.33;;;2.27;;
35540;SDS011;21650;48.840;9.162;2022-11-23T06:50:08;8.90;;;2.93;;
35540;SDS011;21650;48.840;9.162;2022-11-23T06:52:34;8.10;;;2.17;;
35540;SDS011;21650;48.840;9.162;2022-11-23T06:55:00;6.30;;;2.07;;
35540;SDS011;21650;48.840;9.162;2022-11-23T06:57:25;4.73;;;2.50;;
35540;SDS011;21650;48.840;9.162;2022-11-23T06:59:51;7.67;;;2.37;;
35540;SDS011;21650;48.840;9.162;2022-11-23T07:02:16;4.47;;;2.50;;
35540;SDS011;21650;48.840;9.162;2022-11-23T07:04:42;5.93;;;2.17;;
35540;SDS011;21650;48.840;9.162;2022-11-23T07:07:07;9.97;;;2.10;;
35540;SDS011;21650;48.840;9.162;2022-11-23T07:09:33;7.13;;;2.40;;
35540;SDS011;21650;48.840;9.162;2022-11-23T07:11:59;11.13;;;2.20;;
35540;SDS011;21650;48.840;9.162;2022-11-23T07:14:25;4.23;;;2.00;;
35540;SDS011;21650;48.840;9.162;2022-11-23T07:16:50;7.90;;;2.13;;
35540;SDS011;21650;48.840;9.162;2022-11-23T07:19:16;9.83;;;2.03;;
35540;SDS011;21650;48.840;9.162;2022-11-23T07:21:42;4.87;;;1.90;;
35540;SDS011;21650;48.840;9.162;2022-11-23T07:24:09;4.57;;;2.10;;
35540;SDS011;21650;48.840;9.162;2022-11-23T07:26:35;6.47;;;2.20;;
35540;SDS011;21650;48.840;9.162;2022-11-23T07:29:00;6.17;;;2.03;;
35540;SDS011;21650;48.840;9.162;2022-11-23T07:31:26;5.77;;;1.80;;
35540;SDS011;21650;48.840;9.162;2022-11-23T07:33:51;5.13;;;1.97;;
35540;SDS011;21650;48.840;9.162;2022-11-23T07:36:17;5.10;;;1.80;;
35540;SDS011;21650;48.840;9.162;2022-11-23T07:38:43;6.23;;;2.40;;
35540;SDS011;21650;48.840;9.162;2022-11-23T07:41:08;6.63;;;2.40;;
35540;SDS011;21650;48.840;9.162;2022-11-23T07:43:34;5.37;;;2.00;;
35540;SDS011;21650;48.840;9.162;2022-11-23T07:46:00;8.70;;;3.13;;
35540;SDS011;21650;48.840;9.162;2022-11-23T07:48:25;13.67;;;4.20;;
35540;SDS011;21650;48.840;9.162;2022-11-23T07:50:51;6.90;;;3.67;;
35540;SDS011;21650;48.840;9.162;2022-11-23T07:53:18;11.80;;;3.10;;
35540;SDS011;21650;48.840;9.162;2022-11-23T07:55:43;6.17;;;2.20;;
35540;SDS011;21650;48.840;9.162;2022-11-23T07:58:09;9.33;;;2.63;;
35540;SDS011;21650;48.840;9.162;2022-11-23T08:00:35;12.07;;;3.03;;
35540;SDS011;21650;48.840;9.162;2022-11-23T08:03:01;3.73;;;2.40;;
35540;SDS011;21650;48.840;9.162;2022-11-23T08:05:26;6.30;;;2.43;;
35540;SDS011;21650;48.840;9.162;2022-11-23T08:07:58;4.03;;;2.57;;
35540;SDS011;21650;48.840;9.162;2022-11-23T08:10:25;6.47;;;2.70;;
35540;SDS011;21650;48.840;9.162;2022-11-23T08:12:58;8.27;;;2.50;;
35540;SDS011;21650;48.840;9.162;2022-11-23T08:15:25;3.90;;;2.47;;
35540;SDS011;21650;48.840;9.162;2022-11-23T08:17:57;6.63;;;2.37;;
35540;SDS011;21650;48.840;9.162;2022-11-23T08:20:25;7.47;;;3.63;;
35540;SDS011;21650;48.840;9.162;2022-11-23T08:22:52;7.97;;;2.93;;
35540;SDS011;21650;48.840;9.162;2022-11-23T08:25:20;7.13;;;3.30;;
35540;SDS011;21650;48.840;9.162;2022-11-23T08:27:46;7.47;;;2.97;;
35540;SDS011;21650;48.840;9.162;2022-11-23T08:30:12;10.60;;;3.27;;
35540;SDS011;21650;48.840;9.162;2022-11-23T08:32:38;5.57;;;3.17;;
35540;SDS011;21650;48.840;9.162;2022-11-23T08:35:04;11.23;;;3.57;;
35540;SDS011;21650;48.840;9.162;2022-11-23T08:37:30;9.73;;;3.20;;
35540;SDS011;21650;48.840;9.162;2022-11-23T08:39:55;8.20;;;3.17;;
35540;SDS011;21650;48.840;9.162;2022-11-23T08:42:21;6.30;;;3.07;;
35540;SDS011;21650;48.840;9.162;2022-11-23T08:44:46;9.80;;;3.17;;
35540;SDS011;21650;48.840;9.162;2022-11-23T08:47:12;6.70;;;3.27;;
35540;SDS011;21650;48.840;9.162;2022-11-23T08:49:37;5.27;;;2.97;;
35540;SDS011;21650;48.840;9.162;2022-11-23T08:52:03;6.80;;;3.17;;
35540;SDS011;21650;48.840;9.162;2022-11-23T08:54:28;10.07;;;2.80;;
35540;SDS011;21650;48.840;9.162;2022-11-23T08:56:55;14.03;;;5.33;;
35540;SDS011;21650;48.840;9.162;2022-11-23T08:59:21;7.97;;;2.60;;
35540;SDS011;21650;48.840;9.162;2022-11-23T09:01:46;8.43;;;2.57;;
35540;SDS011;21650;48.840;9.162;2022-11-23T09:04:12;7.40;;;2.47;;
35540;SDS011;21650;48.840;9.162;2022-11-23T09:06:38;5.50;;;2.67;;
35540;SDS011;21650;48.840;9.162;2022-11-23T09:09:03;5.63;;;2.13;;
35540;SDS011;21650;48.840;9.162;2022-11-23T09:11:29;8.60;;;3.10;;
35540;SDS011;21650;48.840;9.162;2022-11-23T09:13:55;12.77;;;3.00;;
35540;SDS011;21650;48.840;9.162;2022-11-23T09:16:20;9.27;;;2.80;;
35540;SDS011;21650;48.840;9.162;2022-11-23T09:18:46;7.40;;;2.37;;
35540;SDS011;21650;48.840;9.162;2022-11-23T09:21:13;5.00;;;2.33;;
35540;SDS011;21650;48.840;9.162;2022-11-23T09:23:39;12.40;;;2.47;;
35540;SDS011;21650;48.840;9.162;2022-11-23T09:26:05;8.37;;;2.37;;
35540;SDS011;21650;48.840;9.162;2022-11-23T09:28:31;5.27;;;1.93;;
35540;SDS011;21650;48.840;9.162;2022-11-23T09:30:57;3.60;;;1.90;;
35540;SDS011;21650;48.840;9.162;2022-11-23T09:33:25;9.07;;;2.30;;
35540;SDS011;21650;48.840;9.162;2022-11-23T09:35:58;9.73;;;2.50;;
35540;SDS011;21650;48.840;9.162;2022-11-23T09:38:25;7.03;;;2.47;;
35540;SDS011;21650;48.840;9.162;2022-11-23T09:41:00;7.80;;;2.57;;
35540;SDS011;21650;48.840;9.162;2022-11-23T09:43:56;7.27;;;3.10;;
35540;SDS011;21650;48.840;9.162;2022-11-23T09:49:16;8.97;;;3.10;;
35540;SDS011;21650;48.840;9.162;2022-11-23T09:51:45;7.97;;;3.33;;
35540;SDS011;21650;48.840;9.162;2022-11-23T09:57:01;6.20;;;2.07;;
35540;SDS011;21650;48.840;9.162;2022-11-23T10:01:54;9.70;;;1.93;;
35540;SDS011;21650;48.840;9.162;2022-11-23T10:04:20;9.53;;;2.23;;
35540;SDS011;21650;48.840;9.162;2022-11-23T10:06:50;4.83;;;1.67;;
35540;SDS011;21650;48.840;9.162;2022-11-23T10:12:02;4.10;;;1.50;;
35540;SDS011;21650;48.840;9.162;2022-11-23T10:17:46;5.23;;;1.80;;
35540;SDS011;21650;48.840;9.162;2022-11-23T10:20:39;1.63;;;1.10;;
35540;SDS011;21650;48.840;9.162;2022-11-23T10:26:16;4.60;;;1.80;;
35540;SDS011;21650;48.840;9.162;2022-11-23T10:28:44;4.33;;;1.77;;
35540;SDS011;21650;48.840;9.162;2022-11-23T10:31:18;5.53;;;2.40;;
35540;SDS011;21650;48.840;9.162;2022-11-23T10:33:50;12.93;;;2.27;;
35540;SDS011;21650;48.840;9.162;2022-11-23T10:36:17;3.27;;;1.67;;
35540;SDS011;21650;48.840;9.162;2022-11-23T10:38:43;5.67;;;1.63;;
35540;SDS011;21650;48.840;9.162;2022-11-23T10:41:12;5.20;;;1.70;;
35540;SDS011;21650;48.840;9.162;2022-11-23T10:43:46;9.60;;;1.80;;
35540;SDS011;21650;48.840;9.162;2022-11-23T10:46:26;12.80;;;1.73;;
35540;SDS011;21650;48.840;9.162;2022-11-23T10:48:54;4.63;;;1.33;;
35540;SDS011;21650;48.840;9.162;2022-11-23T10:53:59;5.73;;;1.50;;
35540;SDS011;21650;48.840;9.162;2022-11-23T10:56:28;3.53;;;1.20;;
35540;SDS011;21650;48.840;9.162;2022-11-23T10:58:54;1.13;;;0.93;;
35540;SDS011;21650;48.840;9.162;2022-11-23T11:01:24;2.90;;;1.37;;
35540;SDS011;21650;48.840;9.162;2022-11-23T11:03:51;4.40;;;1.40;;
35540;SDS011;21650;48.840;9.162;2022-11-23T11:06:21;3.60;;;1.80;;
35540;SDS011;21650;48.840;9.162;2022-11-23T11:08:48;4.40;;;1.70;;
35540;SDS011;21650;48.840;9.162;2022-11-23T11:11:28;4.97;;;1.53;;
35540;SDS011;21650;48.840;9.162;2022-11-23T11:16:34;6.03;;;1.97;;
35540;SDS011;21650;48.840;9.162;2022-11-23T11:19:21;3.03;;;1.60;;
35540;SDS011;21650;48.840;9.162;2022-11-23T11:21:50;7.40;;;2.27;;
35540;SDS011;21650;48.840;9.162;2022-11-23T11:24:27;6.43;;;1.77;;
35540;SDS011;21650;48.840;9.162;2022-11-23T11:27:05;4.40;;;1.20;;
35540;SDS011;21650;48.840;9.162;2022-11-23T11:34:40;5.03;;;1.70;;
35540;SDS011;21650;48.840;9.162;2022-11-23T11:37:16;6.40;;;2.07;;
35540;SDS011;21650;48.840;9.162;2022-11-23T11:39:56;7.07;;;2.87;;
35540;SDS011;21650;48.840;9.162;2022-11-23T11:42:45;5.10;;;2.10;;
35540;SDS011;21650;48.840;9.162;2022-11-23T11:48:02;6.77;;;2.47;;
35540;SDS011;21650;48.840;9.162;2022-11-23T11:50:35;5.30;;;1.90;;
35540;SDS011;21650;48.840;9.162;2022-11-23T11:53:13;3.90;;;2.10;;
35540;SDS011;21650;48.840;9.162;2022-11-23T11:58:19;7.37;;;2.00;;
35540;SDS011;21650;48.840;9.162;2022-11-23T12:00:48;5.60;;;1.77;;
35540;SDS011;21650;48.840;9.162;2022-11-23T12:05:54;7.63;;;2.90;;
35540;SDS011;21650;48.840;9.162;2022-11-23T12:08:32;3.57;;;2.07;;
35540;SDS011;21650;48.840;9.162;2022-11-23T12:11:19;3.27;;;1.80;;
35540;SDS011;21650;48.840;9.162;2022-11-23T12:13:45;3.47;;;1.33;;
35540;SDS011;21650;48.840;9.162;2022-11-23T12:18:48;2.50;;;1.27;;
35540;SDS011;21650;48.840;9.162;2022-11-23T12:21:50;4.83;;;1.33;;
35540;SDS011;21650;48.840;9.162;2022-11-23T12:30:20;5.13;;;1.23;;
35540;SDS011;21650;48.840;9.162;2022-11-23T12:32:54;2.67;;;1.30;;
35540;SDS011;21650;48.840;9.162;2022-11-23T12:38:01;4.77;;;1.57;;
35540;SDS011;21650;48.840;9.162;2022-11-23T12:54:51;2.13;;;1.00;;
35540;SDS011;21650;48.840;9.162;2022-11-23T12:57:40;2.30;;;0.87;;
35540;SDS011;21650;48.840;9.162;2022-11-23T13:00:18;1.67;;;0.80;;
35540;SDS011;21650;48.840;9.162;2022-11-23T13:02:54;3.67;;;1.10;;
35540;SDS011;21650;48.840;9.162;2022-11-23T13:06:06;1.00;;;0.70;;
35540;SDS011;21650;48.840;9.162;2022-11-23T13:17:00;4.07;;;0.83;;
35540;SDS011;21650;48.840;9.162;2022-11-23T13:22:28;1.53;;;1.30;;
35540;SDS011;21650;48.840;9.162;2022-11-23T13:25:13;0.93;;;0.60;;
35540;SDS011;21650;48.840;9.162;2022-11-23T13:40:43;3.37;;;1.10;;
35540;SDS011;21650;48.840;9.162;2022-11-23T13:43:17;1.37;;;0.70;;
35540;SDS011;21650;48.840;9.162;2022-11-23T13:48:53;2.87;;;1.13;;
35540;SDS011;21650;48.840;9.162;2022-11-23T13:51:27;3.60;;;1.10;;
35540;SDS011;21650;48.840;9.162;2022-11-23T13:53:58;3.47;;;0.93;;
35540;SDS011;21650;48.840;9.162;2022-11-23T14:04:23;2.23;;;0.87;;
35540;SDS011;21650;48.840;9.162;2022-11-23T14:12:42;1.97;;;1.07;;
35540;SDS011;21650;48.840;9.162;2022-11-23T14:15:19;1.07;;;0.93;;
35540;SDS011;21650;48.840;9.162;2022-11-23T14:26:20;4.07;;;0.83;;
35540;SDS011;21650;48.840;9.162;2022-11-23T14:29:20;5.97;;;1.53;;
35540;SDS011;21650;48.840;9.162;2022-11-23T14:34:59;2.47;;;1.13;;
35540;SDS011;21650;48.840;9.162;2022-11-23T14:41:05;5.47;;;1.07;;
35540;SDS011;21650;48.840;9.162;2022-11-23T14:43:33;2.60;;;0.97;;
35540;SDS011;21650;48.840;9.162;2022-11-23T14:46:01;3.27;;;0.87;;
35540;SDS011;21650;48.840;9.162;2022-11-23T14:48:32;1.20;;;0.90;;
35540;SDS011;21650;48.840;9.162;2022-11-23T14:53:52;2.63;;;1.00;;
35540;SDS011;21650;48.840;9.162;2022-11-23T15:04:28;3.47;;;1.20;;
35540;SDS011;21650;48.840;9.162;2022-11-23T15:07:20;3.27;;;1.57;;
35540;SDS011;21650;48.840;9.162;2022-11-23T15:12:25;5.23;;;1.73;;
35540;SDS011;21650;48.840;9.162;2022-11-23T15:14:52;5.40;;;1.97;;
35540;SDS011;21650;48.840;9.162;2022-11-23T15:17:21;4.43;;;1.73;;
35540;SDS011;21650;48.840;9.162;2022-11-23T15:19:52;3.03;;;1.23;;
35540;SDS011;21650;48.840;9.162;2022-11-23T15:22:22;1.97;;;1.43;;
35540;SDS011;21650;48.840;9.162;2022-11-23T15:24:48;4.03;;;1.40;;
35540;SDS011;21650;48.840;9.162;2022-11-23T15:27:15;3.00;;;1.20;;
35540;SDS011;21650;48.840;9.162;2022-11-23T15:29:56;3.30;;;1.23;;
35540;SDS011;21650;48.840;9.162;2022-11-23T15:32:27;4.73;;;1.70;;
35540;SDS011;21650;48.840;9.162;2022-11-23T15:34:54;3.83;;;1.33;;
35540;SDS011;21650;48.840;9.162;2022-11-23T15:37:22;4.57;;;1.60;;
35540;SDS011;21650;48.840;9.162;2022-11-23T15:39:50;2.43;;;1.53;;
35540;SDS011;21650;48.840;9.162;2022-11-23T15:42:18;2.80;;;1.10;;
35540;SDS011;21650;48.840;9.162;2022-11-23T15:44:46;4.07;;;1.60;;
35540;SDS011;21650;48.840;9.162;2022-11-23T15:47:16;3.70;;;1.40;;
35540;SDS011;21650;48.840;9.162;2022-11-23T15:49:46;9.07;;;1.60;;
35540;SDS011;21650;48.840;9.162;2022-11-23T15:52:14;5.93;;;1.53;;
35540;SDS011;21650;48.840;9.162;2022-11-23T15:54:41;5.80;;;1.30;;
35540;SDS011;21650;48.840;9.162;2022-11-23T15:57:15;3.17;;;1.57;;
35540;SDS011;21650;48.840;9.162;2022-11-23T15:59:49;5.60;;;1.60;;
35540;SDS011;21650;48.840;9.162;2022-11-23T16:02:25;2.57;;;1.70;;
35540;SDS011;21650;48.840;9.162;2022-11-23T16:10:25;2.67;;;1.77;;
35540;SDS011;21650;48.840;9.162;2022-11-23T16:12:55;2.87;;;1.67;;
35540;SDS011;21650;48.840;9.162;2022-11-23T16:23:21;6.40;;;2.80;;
35540;SDS011;21650;48.840;9.162;2022-11-23T16:25:53;5.03;;;3.00;;
35540;SDS011;21650;48.840;9.162;2022-11-23T16:29:14;2.20;;;2.00;;
35540;SDS011;21650;48.840;9.162;2022-11-23T16:34:10;2.10;;;1.60;;
35540;SDS011;21650;48.840;9.162;2022-11-23T16:36:39;3.33;;;1.50;;
35540;SDS011;21650;48.840;9.162;2022-11-23T16:39:05;3.73;;;1.60;;
35540;SDS011;21650;48.840;9.162;2022-11-23T16:41:30;5.53;;;1.40;;
35540;SDS011;21650;48.840;9.162;2022-11-23T16:43:56;5.10;;;1.70;;
35540;SDS011;21650;48.840;9.162;2022-11-23T16:46:21;2.17;;;1.37;;
35540;SDS011;21650;48.840;9.162;2022-11-23T16:48:47;4.23;;;1.27;;
35540;SDS011;21650;48.840;9.162;2022-11-23T16:51:13;5.50;;;1.87;;
35540;SDS011;21650;48.840;9.162;2022-11-23T16:53:45;3.33;;;1.50;;
35540;SDS011;21650;48.840;9.162;2022-11-23T16:56:14;3.23;;;1.63;;
35540;SDS011;21650;48.840;9.162;2022-11-23T16:58:45;3.87;;;1.23;;
35540;SDS011;21650;48.840;9.162;2022-11-23T17:01:16;4.60;;;2.03;;
35540;SDS011;21650;48.840;9.162;2022-11-23T17:03:50;2.83;;;1.60;;
35540;SDS011;21650;48.840;9.162;2022-11-23T17:06:16;5.77;;;1.87;;
35540;SDS011;21650;48.840;9.162;2022-11-23T17:08:43;3.33;;;2.03;;
35540;SDS011;21650;48.840;9.162;2022-11-23T17:11:13;6.27;;;1.90;;
35540;SDS011;21650;48.840;9.162;2022-11-23T17:13:41;3.47;;;2.07;;
35540;SDS011;21650;48.840;9.162;2022-11-23T17:16:10;3.33;;;1.77;;
35540;SDS011;21650;48.840;9.162;2022-11-23T17:18:39;4.80;;;1.73;;
35540;SDS011;21650;48.840;9.162;2022-11-23T17:21:04;4.27;;;1.60;;
35540;SDS011;21650;48.840;9.162;2022-11-23T17:23:30;4.83;;;1.60;;
35540;SDS011;21650;48.840;9.162;2022-11-23T17:25:56;4.63;;;1.93;;
35540;SDS011;21650;48.840;9.162;2022-11-23T17:28:22;5.00;;;1.40;;
35540;SDS011;21650;48.840;9.162;2022-11-23T17:30:48;3.10;;;1.30;;
35540;SDS011;21650;48.840;9.162;2022-11-23T17:33:14;3.93;;;1.43;;
35540;SDS011;21650;48.840;9.162;2022-11-23T17:35:40;2.60;;;1.90;;